GOES-16 Infra (Sul)

Satélite GOES-16 CPTEC

GOES-16 Visível (Sul)

Satélite CPTEC Visível

Radar

Sem informação disponível

Raios (Sul)

Radios Simepar

Pressão e ventos(nós)

Pressao e Ventos (Climatempo)

Previsão para Florianópolis

Quarta-feira

Aguaceiros ao final da noite. Mínima 21°C.


Quarta à noite

Aguaceiros ao final da noite. Mínima 21°C. Ventos O a 10 a 15 km/h. Possib. de chuva 50%.


Quinta-feira

Céu Limpo

26º / 20º

Sexta-feira

Céu Limpo

27º / 21º

Sábado

Possibilidade de Chuva

26º / 21º

Aeroporto Florianópolis/SC (FLN) - SBFL


Situação: Informação não disponível

Atualização: 2227 UTC 21 Feb 2018

Vento: 06KT (11,7 Km/h) - Sul-sudeste (SSE) (160º)

Visibilidade: Maior que 10.000 metros

Poucas nuvens a 2000 ft

Poucas nuvens a 4300 ft (Potencial tempestade)

Nuvens esparsas a 9000 ft

Temperatura: 25ºC / 20ºC

Pressão: 1006 hPa

Data at: 2227 UTC 21 Feb 2018SBFL 212200Z 16006KT 9999 FEW020 FEW043TCU SCT090 25/20 Q1006